Time;durP1;ratioP1;P1;durP2;ratioP2;P2;SDS_P1;SDS_P2;PMS_P1;PMS_P2;Temp;Humidity;BMP_temperature;BMP_pressure;BME280_temperature;BME280_humidity;BME280_pressure;Samples;Min_cycle;Max_cycle;Signal;HPM_P1;HPM_P2
2021/09/04 00:01:16;;;;;;;17.60;11.32;;;;;;;15.16;65.60;98612.78;4934818;29;20500;-74
2021/09/04 00:03:41;;;;;;;16.83;11.18;;;;;;;15.12;65.40;98615.38;4934223;29;20403;-74
2021/09/04 00:06:06;;;;;;;17.08;10.68;;;;;;;15.11;65.81;98615.69;4934767;29;20031;-74
2021/09/04 00:08:32;;;;;;;15.10;10.30;;;;;;;15.08;65.66;98608.88;4934784;29;20039;-76
2021/09/04 00:10:57;;;;;;;16.85;10.77;;;;;;;15.05;65.56;98604.00;4934699;29;20063;-75
2021/09/04 00:13:22;;;;;;;15.60;10.07;;;;;;;15.05;65.62;98608.72;4934798;29;20624;-74
2021/09/04 00:15:48;;;;;;;16.48;10.50;;;;;;;15.03;65.87;98607.09;4934511;29;20028;-74
2021/09/04 00:18:13;;;;;;;17.88;10.63;;;;;;;15.03;65.74;98609.03;4934755;29;20086;-74
2021/09/04 00:20:39;;;;;;;20.23;12.00;;;;;;;15.02;65.93;98608.22;4934573;29;20106;-75
2021/09/04 00:23:04;;;;;;;21.95;12.02;;;;;;;15.02;66.02;98608.22;4934837;28;20027;-75
2021/09/04 00:25:30;;;;;;;21.88;11.63;;;;;;;15.02;66.33;98612.94;4934946;29;20066;-74
2021/09/04 00:27:55;;;;;;;20.10;12.27;;;;;;;15.07;66.54;98614.75;4934106;29;20044;-74
2021/09/04 00:30:20;;;;;;;18.38;11.23;;;;;;;15.08;66.46;98613.59;4934575;29;20040;-76
2021/09/04 00:32:46;;;;;;;18.20;11.40;;;;;;;15.10;66.58;98611.31;4934060;29;20062;-77
2021/09/04 00:35:12;;;;;;;21.63;11.85;;;;;;;15.14;66.64;98612.28;4934539;29;20036;-74
2021/09/04 00:37:37;;;;;;;18.55;11.90;;;;;;;15.16;66.38;98618.31;4934108;29;20027;-74
2021/09/04 00:40:04;;;;;;;19.27;12.10;;;;;;;15.17;66.64;98612.47;4933949;29;20035;-75
2021/09/04 00:42:31;;;;;;;17.30;10.55;;;;;;;15.18;66.28;98608.56;4934072;29;20031;-75
2021/09/04 00:44:57;;;;;;;15.57;10.32;;;;;;;15.18;66.21;98602.22;4936349;29;20039;-76
2021/09/04 00:47:23;;;;;;;14.35;10.48;;;;;;;15.18;66.18;98603.03;4933241;29;20027;-76
2021/09/04 00:49:48;;;;;;;17.38;11.10;;;;;;;15.17;66.39;98608.88;4934053;29;20607;-75
2021/09/04 00:52:15;;;;;;;14.52;10.65;;;;;;;15.09;66.56;98609.69;4932778;29;20439;-76
2021/09/04 00:54:41;;;;;;;14.48;9.98;;;;;;;15.02;66.20;98605.47;4932819;29;20036;-75
2021/09/04 00:57:07;;;;;;;16.98;10.65;;;;;;;14.99;66.63;98599.75;4932707;29;20039;-74
2021/09/04 00:59:32;;;;;;;15.65;10.18;;;;;;;14.97;66.18;98604.78;4932452;29;20036;-75
2021/09/04 01:01:58;;;;;;;17.42;10.65;;;;;;;14.92;66.25;98597.47;4932365;29;20038;-75
2021/09/04 01:04:23;;;;;;;14.60;10.40;;;;;;;14.85;66.70;98599.91;4932185;29;20035;-75
2021/09/04 01:06:48;;;;;;;19.52;10.77;;;;;;;14.78;66.30;98599.53;4932435;29;20032;-74
2021/09/04 01:09:15;;;;;;;20.73;12.15;;;;;;;14.70;66.22;98598.41;4932666;29;20543;-75
2021/09/04 01:11:41;;;;;;;19.15;12.00;;;;;;;14.64;66.29;98605.16;4947811;29;20477;-75
2021/09/04 01:14:06;;;;;;;16.20;11.70;;;;;;;14.56;66.18;98607.56;4933576;29;20138;-75
2021/09/04 01:16:40;;;;;;;18.65;12.27;;;;;;;14.51;66.33;98607.72;4933383;29;20051;-75
2021/09/04 01:19:07;;;;;;;18.95;12.50;;;;;;;14.43;66.51;98612.06;4932881;29;20055;-75
2021/09/04 01:21:34;;;;;;;21.08;11.82;;;;;;;14.37;66.42;98618.06;4932961;29;20027;-75
2021/09/04 01:24:01;;;;;;;19.77;13.00;;;;;;;14.29;66.56;98611.34;4932912;29;20031;-75
2021/09/04 01:26:27;;;;;;;22.92;14.30;;;;;;;14.23;66.59;98609.88;4933303;29;20579;-75
2021/09/04 01:28:55;;;;;;;27.20;16.35;;;;;;;14.14;66.63;98621.69;4932491;29;20052;-75
2021/09/04 01:31:24;;;;;;;23.67;14.80;;;;;;;14.10;66.87;98608.81;4932597;29;20035;-75
2021/09/04 01:33:50;;;;;;;19.63;14.20;;;;;;;14.06;66.88;98608.66;4931480;29;20024;-75
2021/09/04 01:36:33;;;;;;;22.17;14.13;;;;;;;14.05;67.07;98614.50;4932040;29;20039;-74
2021/09/04 01:39:00;;;;;;;21.38;13.27;;;;;;;14.01;67.32;98607.97;4932598;29;20561;-75
2021/09/04 01:41:26;;;;;;;18.77;12.85;;;;;;;13.99;67.31;98611.03;4933078;29;20065;-75
2021/09/04 01:43:52;;;;;;;23.02;13.93;;;;;;;13.96;67.30;98608.91;4934388;29;20039;-75
2021/09/04 01:46:17;;;;;;;19.58;13.13;;;;;;;13.93;67.79;98607.59;4933463;29;20161;-74
2021/09/04 01:48:43;;;;;;;20.25;13.25;;;;;;;13.84;67.55;98610.31;4932874;29;20079;-75
2021/09/04 01:51:08;;;;;;;21.55;12.82;;;;;;;13.79;67.97;98606.84;4932975;29;20032;-75
2021/09/04 01:53:33;;;;;;;19.02;12.93;;;;;;;13.78;67.97;98607.97;4933486;29;20039;-75
2021/09/04 01:56:00;;;;;;;21.35;13.52;;;;;;;13.68;67.93;98600.78;4933536;29;20038;-75
2021/09/04 01:58:25;;;;;;;19.65;12.40;;;;;;;13.60;67.99;98605.13;4932721;29;20483;-75
2021/09/04 02:00:51;;;;;;;19.85;12.02;;;;;;;13.55;68.11;98605.22;4932250;29;20036;-75
2021/09/04 02:03:16;;;;;;;18.23;11.82;;;;;;;13.54;68.37;98606.34;4932933;29;20548;-74
2021/09/04 02:05:42;;;;;;;18.48;12.20;;;;;;;13.49;68.08;98603.72;4931061;29;20531;-74
2021/09/04 02:08:07;;;;;;;19.58;12.65;;;;;;;13.47;68.29;98598.50;4932636;29;20063;-75
2021/09/04 02:10:32;;;;;;;20.88;12.43;;;;;;;13.44;68.33;98595.56;4931992;29;20023;-75
2021/09/04 02:12:58;;;;;;;18.17;12.20;;;;;;;13.43;68.28;98597.53;4932053;29;20032;-75
2021/09/04 02:15:23;;;;;;;23.42;13.38;;;;;;;13.38;68.38;98595.66;4932727;29;20020;-75
2021/09/04 02:17:48;;;;;;;18.35;12.73;;;;;;;13.34;68.17;98597.41;4933205;29;20065;-75
2021/09/04 02:20:14;;;;;;;20.50;12.45;;;;;;;13.31;68.31;98603.53;4932227;29;20449;-74
2021/09/04 02:22:40;;;;;;;20.45;12.65;;;;;;;13.27;68.35;98588.75;4932872;28;20106;-74
2021/09/04 02:25:06;;;;;;;21.58;12.85;;;;;;;13.24;68.44;98590.19;4934419;29;20125;-74
2021/09/04 02:27:32;;;;;;;18.75;12.68;;;;;;;13.21;68.54;98587.25;4930161;29;20039;-74
2021/09/04 02:29:57;;;;;;;20.65;11.95;;;;;;;13.16;68.54;98587.38;4930863;29;20028;-74
2021/09/04 02:32:23;;;;;;;18.92;12.10;;;;;;;13.10;68.31;98590.25;4932364;29;20034;-74
2021/09/04 02:34:48;;;;;;;20.60;11.75;;;;;;;13.12;68.52;98600.13;4932114;29;20031;-74
2021/09/04 02:37:13;;;;;;;18.05;11.43;;;;;;;13.09;68.79;98596.88;4932575;29;20092;-75
2021/09/04 02:39:39;;;;;;;19.83;11.63;;;;;;;13.12;69.03;98594.63;4932307;28;20047;-74
2021/09/04 02:42:04;;;;;;;20.02;11.32;;;;;;;13.10;68.67;98600.44;4932256;29;20027;-74
2021/09/04 02:44:30;;;;;;;18.33;11.57;;;;;;;13.10;68.77;98593.00;4946242;28;20034;-74
2021/09/04 02:46:55;;;;;;;15.75;10.82;;;;;;;13.10;68.94;98594.91;4930696;29;20040;-75
2021/09/04 02:49:20;;;;;;;18.60;11.10;;;;;;;13.06;68.62;98600.25;4931989;29;20041;-74
2021/09/04 02:51:46;;;;;;;18.35;11.82;;;;;;;13.02;69.06;98596.47;4933668;29;20030;-74
2021/09/04 02:54:12;;;;;;;20.85;14.02;;;;;;;12.95;68.88;98591.41;4931919;29;20031;-74
2021/09/04 02:56:37;;;;;;;20.35;13.60;;;;;;;12.89;68.66;98587.13;4932341;29;20158;-74
2021/09/04 02:59:03;;;;;;;21.63;14.18;;;;;;;12.88;69.17;98588.25;4932498;29;20069;-74
2021/09/04 03:01:28;;;;;;;21.88;14.18;;;;;;;12.87;69.33;98591.28;4931230;29;20106;-74
2021/09/04 03:03:54;;;;;;;22.60;13.55;;;;;;;12.89;68.90;98583.53;4931645;29;20536;-74
2021/09/04 03:06:19;;;;;;;22.23;13.10;;;;;;;12.91;69.15;98584.06;4932609;29;20032;-74
2021/09/04 03:08:44;;;;;;;23.10;14.38;;;;;;;12.88;69.18;98576.41;4932374;29;20024;-75
2021/09/04 03:11:10;;;;;;;25.88;15.07;;;;;;;12.86;69.19;98575.91;4930432;29;20055;-74
2021/09/04 03:13:35;;;;;;;24.17;15.80;;;;;;;12.81;69.41;98571.34;4946096;29;20055;-74
2021/09/04 03:16:01;;;;;;;23.35;15.13;;;;;;;12.82;69.40;98575.72;4932222;29;20083;-74
2021/09/04 03:18:26;;;;;;;26.13;15.77;;;;;;;12.80;69.75;98569.72;4932666;29;20039;-74
2021/09/04 03:20:51;;;;;;;23.83;14.60;;;;;;;12.79;69.82;98571.66;4931301;29;20031;-74
2021/09/04 03:23:17;;;;;;;26.90;15.82;;;;;;;12.79;69.75;98576.34;4932024;29;20032;-75
2021/09/04 03:25:42;;;;;;;24.98;15.35;;;;;;;12.77;70.07;98573.06;4931657;29;20135;-74
2021/09/04 03:28:08;;;;;;;26.08;16.23;;;;;;;12.74;70.03;98574.50;4931744;29;20058;-74
2021/09/04 03:30:33;;;;;;;25.45;15.48;;;;;;;12.73;69.99;98574.81;4946356;28;20050;-74
2021/09/04 03:32:59;;;;;;;26.20;14.90;;;;;;;12.72;69.64;98587.75;4931549;29;20055;-74
2021/09/04 03:35:24;;;;;;;27.80;15.55;;;;;;;12.71;70.26;98582.56;4931257;29;20024;-74
2021/09/04 03:37:50;;;;;;;22.40;14.85;;;;;;;12.67;70.05;98579.63;4932114;29;20023;-75
2021/09/04 03:40:15;;;;;;;24.02;14.55;;;;;;;12.63;69.84;98576.66;4924338;29;20087;-74
2021/09/04 03:42:41;;;;;;;27.40;15.05;;;;;;;12.60;69.97;98584.72;4930675;29;20028;-74
2021/09/04 03:45:07;;;;;;;24.10;15.85;;;;;;;12.57;70.11;98585.31;4930961;29;20058;-74
2021/09/04 03:47:32;;;;;;;24.92;14.93;;;;;;;12.55;70.21;98590.31;4931658;29;20028;-73
2021/09/04 03:49:57;;;;;;;25.02;14.90;;;;;;;12.52;70.07;98586.25;4945814;29;20024;-74
2021/09/04 03:52:23;;;;;;;23.80;14.88;;;;;;;12.50;70.17;98589.28;4931127;29;20492;-74
2021/09/04 03:54:48;;;;;;;22.88;14.80;;;;;;;12.51;70.18;98599.16;4931377;29;20110;-74
2021/09/04 03:57:13;;;;;;;25.20;14.38;;;;;;;12.49;70.17;98598.66;4931396;29;20038;-74
2021/09/04 03:59:40;;;;;;;23.92;13.73;;;;;;;12.47;70.53;98600.09;4935566;29;20476;-74
2021/09/04 04:02:05;;;;;;;25.63;14.77;;;;;;;12.42;70.54;98598.28;4934768;29;20032;-74
2021/09/04 04:04:30;;;;;;;24.92;14.80;;;;;;;12.42;70.84;98594.69;4934527;29;20126;-74
2021/09/04 04:06:56;;;;;;;22.83;13.38;;;;;;;12.41;70.55;98593.06;4934234;29;20531;-73
2021/09/04 04:09:21;;;;;;;25.92;15.38;;;;;;;12.36;70.80;98603.03;4934624;29;20052;-74
2021/09/04 04:11:46;;;;;;;26.92;15.40;;;;;;;12.30;70.16;98606.22;4935813;29;20032;-73
2021/09/04 04:14:12;;;;;;;23.85;14.75;;;;;;;12.28;70.71;98614.75;4934918;29;20031;-74
2021/09/04 04:16:37;;;;;;;22.85;14.82;;;;;;;12.27;70.51;98607.59;4934791;29;20027;-73
2021/09/04 04:19:02;;;;;;;28.88;15.18;;;;;;;12.29;70.48;98613.63;4934391;29;20455;-73
2021/09/04 04:21:28;;;;;;;20.15;14.18;;;;;;;12.27;70.41;98613.09;4934236;29;20102;-74
2021/09/04 04:23:53;;;;;;;28.05;15.35;;;;;;;12.28;70.95;98612.00;4934229;29;20472;-74
2021/09/04 04:26:19;;;;;;;26.45;15.02;;;;;;;12.28;70.82;98608.44;4934492;29;20424;-74
2021/09/04 04:28:44;;;;;;;26.05;14.88;;;;;;;12.33;70.97;98613.84;4933565;29;20040;-74
2021/09/04 04:31:09;;;;;;;26.02;15.05;;;;;;;12.31;70.67;98613.34;4934309;29;20031;-74
2021/09/04 04:33:35;;;;;;;23.13;14.35;;;;;;;12.30;71.17;98606.22;4933883;29;20031;-74
2021/09/04 04:36:00;;;;;;;23.30;14.15;;;;;;;12.32;70.92;98612.22;4934600;29;20388;-74
2021/09/04 04:38:25;;;;;;;24.88;14.98;;;;;;;12.37;71.19;98612.13;4934387;29;20040;-74
2021/09/04 04:40:51;;;;;;;27.60;15.30;;;;;;;12.40;70.92;98608.75;4934635;28;20047;-74
2021/09/04 04:43:16;;;;;;;21.77;13.55;;;;;;;12.44;70.84;98609.75;4933283;29;20039;-73
2021/09/04 04:45:42;;;;;;;23.13;14.18;;;;;;;12.45;70.89;98621.59;4934330;29;20164;-74
2021/09/04 04:48:07;;;;;;;22.30;14.57;;;;;;;12.46;70.90;98624.03;4933910;29;20119;-74
2021/09/04 04:50:33;;;;;;;23.38;13.93;;;;;;;12.52;71.30;98611.00;4934202;29;20448;-74
2021/09/04 04:52:58;;;;;;;22.13;13.60;;;;;;;12.57;71.23;98615.59;4933507;29;20032;-74
2021/09/04 04:55:23;;;;;;;21.15;13.23;;;;;;;12.56;70.63;98628.53;4935854;29;20433;-74
2021/09/04 04:57:49;;;;;;;24.25;15.15;;;;;;;12.59;71.40;98624.34;4933585;29;20030;-74
2021/09/04 05:00:14;;;;;;;25.17;15.13;;;;;;;12.68;71.57;98628.03;4933112;29;20073;-74
2021/09/04 05:02:40;;;;;;;23.02;15.05;;;;;;;12.75;71.25;98622.94;4932692;29;20079;-74
2021/09/04 05:05:06;;;;;;;21.35;14.85;;;;;;;12.80;71.33;98625.56;4933005;29;20062;-74
2021/09/04 05:07:32;;;;;;;27.90;15.18;;;;;;;12.89;71.02;98622.09;4933642;29;20108;-74
2021/09/04 05:09:57;;;;;;;25.00;14.30;;;;;;;12.95;71.43;98629.94;4934684;29;20116;-74
2021/09/04 05:12:23;;;;;;;22.60;14.60;;;;;;;13.03;71.39;98627.59;4934283;29;20043;-74
2021/09/04 05:14:48;;;;;;;21.45;14.10;;;;;;;13.10;71.11;98623.28;4934511;29;20035;-74
2021/09/04 05:17:14;;;;;;;28.45;15.98;;;;;;;13.15;71.18;98627.84;4934309;29;20685;-74
2021/09/04 05:19:39;;;;;;;22.05;14.68;;;;;;;13.22;71.34;98624.69;4934883;29;20032;-74
2021/09/04 05:22:04;;;;;;;21.25;14.55;;;;;;;13.30;71.24;98632.19;4934162;29;20028;-74
2021/09/04 05:24:30;;;;;;;26.13;15.32;;;;;;;13.37;71.28;98623.53;4934734;29;20034;-75
2021/09/04 05:26:55;;;;;;;21.85;13.38;;;;;;;13.46;71.47;98631.91;4933959;29;20407;-74
2021/09/04 05:29:20;;;;;;;22.92;13.75;;;;;;;13.57;71.20;98636.06;4934664;29;20090;-74
2021/09/04 05:31:46;;;;;;;21.45;14.05;;;;;;;13.65;71.28;98628.97;4933787;29;20074;-74
2021/09/04 05:34:11;;;;;;;21.42;14.68;;;;;;;13.76;71.56;98621.25;4932794;29;20036;-73
2021/09/04 05:36:36;;;;;;;25.75;14.52;;;;;;;13.87;71.52;98630.91;4934471;29;20031;-74
2021/09/04 05:39:02;;;;;;;23.23;14.32;;;;;;;13.95;71.35;98627.41;4934337;29;20038;-73
2021/09/04 05:41:27;;;;;;;24.17;13.00;;;;;;;14.04;71.34;98623.88;4933788;29;20036;-74
2021/09/04 05:43:53;;;;;;;21.05;13.20;;;;;;;14.12;71.41;98620.34;4933438;29;20115;-75
2021/09/04 05:46:19;;;;;;;23.98;13.90;;;;;;;14.18;71.33;98619.09;4934831;29;20511;-72
2021/09/04 05:48:44;;;;;;;20.75;13.05;;;;;;;14.24;71.41;98619.78;4934915;29;20059;-72
2021/09/04 05:51:10;;;;;;;21.90;13.35;;;;;;;14.29;71.02;98616.88;4934129;29;20062;-73
2021/09/04 05:53:36;;;;;;;19.58;12.80;;;;;;;14.35;71.51;98626.63;4933299;29;20075;-72
2021/09/04 05:56:02;;;;;;;19.65;13.10;;;;;;;14.41;70.88;98616.28;4934282;29;20035;-72
2021/09/04 05:58:27;;;;;;;19.90;13.45;;;;;;;14.50;71.14;98625.41;4935722;29;20043;-72
2021/09/04 06:00:53;;;;;;;19.63;12.55;;;;;;;14.59;71.21;98636.50;4933397;29;20530;-73
2021/09/04 06:03:19;;;;;;;17.42;12.15;;;;;;;14.68;71.07;98625.47;4933084;29;20036;-73
2021/09/04 06:05:44;;;;;;;20.77;12.57;;;;;;;14.74;71.22;98625.03;4933734;29;20082;-74
2021/09/04 06:08:10;;;;;;;20.33;12.68;;;;;;;14.83;70.96;98630.59;4933766;29;20027;-75
2021/09/04 06:10:35;;;;;;;19.10;12.07;;;;;;;14.91;70.98;98623.47;4934537;29;20028;-74
2021/09/04 06:13:01;;;;;;;21.52;12.27;;;;;;;15.00;70.56;98626.25;4932812;29;20387;-78
2021/09/04 06:15:26;;;;;;;18.55;11.77;;;;;;;15.05;71.18;98623.31;4934212;29;20036;-77
2021/09/04 06:17:51;;;;;;;17.60;11.77;;;;;;;15.16;70.87;98630.19;4933254;29;20036;-76
2021/09/04 06:20:17;;;;;;;20.75;11.82;;;;;;;15.26;70.74;98629.06;4933139;29;20039;-76
2021/09/04 06:22:43;;;;;;;18.00;11.77;;;;;;;15.36;70.67;98633.44;4947884;29;20047;-73
2021/09/04 06:25:09;;;;;;;18.83;11.38;;;;;;;15.46;70.47;98626.81;4940003;29;20068;-74
2021/09/04 06:27:34;;;;;;;17.15;11.65;;;;;;;15.54;70.23;98625.97;4933709;28;20095;-73
2021/09/04 06:29:59;;;;;;;17.17;11.93;;;;;;;15.61;70.47;98625.50;4933503;29;20032;-74
2021/09/04 06:32:26;;;;;;;19.77;12.35;;;;;;;15.70;69.87;98626.28;4932797;29;20046;-73
2021/09/04 06:34:53;;;;;;;17.13;11.57;;;;;;;15.78;70.19;98621.91;4932520;29;20036;-74
2021/09/04 06:37:19;;;;;;;14.77;11.18;;;;;;;15.90;69.91;98629.56;4932822;29;20031;-74
2021/09/04 06:39:44;;;;;;;20.30;13.77;;;;;;;15.99;69.90;98637.84;4933675;29;20090;-74
2021/09/04 06:42:10;;;;;;;15.63;11.70;;;;;;;16.04;69.55;98635.72;4932875;29;20400;-74
2021/09/04 06:44:35;;;;;;;18.95;11.45;;;;;;;16.14;69.42;98642.88;4932416;29;20031;-74
2021/09/04 06:47:00;;;;;;;17.65;11.38;;;;;;;16.25;69.45;98628.69;4928743;29;20028;-74
2021/09/04 06:49:26;;;;;;;16.95;11.85;;;;;;;16.29;69.25;98644.28;4932335;29;20039;-74
2021/09/04 06:51:51;;;;;;;17.15;10.98;;;;;;;16.34;68.99;98638.56;4932967;29;20031;-78
2021/09/04 06:54:17;;;;;;;15.15;10.73;;;;;;;16.37;68.59;98639.84;4933842;29;20028;-75
2021/09/04 06:56:42;;;;;;;15.80;11.15;;;;;;;16.37;68.63;98637.91;4933442;29;20028;-75
2021/09/04 06:59:10;;;;;;;16.83;11.82;;;;;;;16.40;68.83;98643.94;4932380;29;20111;-75
2021/09/04 07:01:36;;;;;;;18.50;11.73;;;;;;;16.45;68.92;98647.31;4933206;29;20020;-75
2021/09/04 07:04:01;;;;;;;14.88;10.32;;;;;;;16.49;68.68;98650.25;4931798;29;20027;-73
2021/09/04 07:06:27;;;;;;;15.57;10.07;;;;;;;16.52;68.80;98647.63;4933051;29;20856;-75
2021/09/04 07:08:52;;;;;;;15.05;11.10;;;;;;;16.54;68.52;98646.50;4932381;29;20106;-75
2021/09/04 07:11:18;;;;;;;15.95;12.00;;;;;;;16.53;68.40;98645.66;4933823;29;20031;-76
2021/09/04 07:13:43;;;;;;;16.65;11.77;;;;;;;16.57;68.46;98645.81;4931413;29;20027;-75
2021/09/04 07:16:08;;;;;;;18.85;12.60;;;;;;;16.60;68.58;98645.97;4931438;29;20103;-75
2021/09/04 07:18:34;;;;;;;17.77;12.57;;;;;;;16.61;68.54;98650.34;4932990;29;20027;-75
2021/09/04 07:20:59;;;;;;;17.73;12.77;;;;;;;16.64;68.48;98652.47;4933522;29;20067;-73
2021/09/04 07:23:24;;;;;;;20.23;13.35;;;;;;;16.67;68.23;98654.56;4932804;29;20059;-74
2021/09/04 07:25:50;;;;;;;17.80;11.85;;;;;;;16.71;68.07;98651.94;4932575;29;20051;-74
2021/09/04 07:28:15;;;;;;;18.00;11.55;;;;;;;16.75;68.27;98652.91;4931946;29;20051;-74
2021/09/04 07:30:41;;;;;;;17.38;11.73;;;;;;;16.81;68.29;98656.31;4933822;29;20032;-74
2021/09/04 07:33:06;;;;;;;16.58;12.07;;;;;;;16.85;67.89;98656.44;4936586;28;20036;-74
2021/09/04 07:35:32;;;;;;;13.60;9.65;;;;;;;16.87;67.99;98659.69;4936892;29;20031;-75
2021/09/04 07:37:57;;;;;;;17.30;12.98;;;;;;;16.87;67.72;98659.69;4936578;29;20039;-74
2021/09/04 07:40:23;;;;;;;18.50;12.50;;;;;;;16.87;67.96;98652.22;4949681;29;20111;-74
2021/09/04 07:42:48;;;;;;;17.60;11.98;;;;;;;16.91;67.77;98657.88;4936604;29;20399;-74
2021/09/04 07:45:14;;;;;;;17.52;11.40;;;;;;;16.95;67.74;98650.53;4937065;29;20023;-74
2021/09/04 07:47:39;;;;;;;16.50;11.82;;;;;;;17.01;67.82;98654.78;4936784;29;20035;-75
2021/09/04 07:50:05;;;;;;;15.82;10.90;;;;;;;17.08;67.82;98662.56;4938177;29;20043;-75
2021/09/04 07:52:31;;;;;;;17.27;11.23;;;;;;;17.12;67.71;98663.50;4936943;29;20039;-74
2021/09/04 07:54:56;;;;;;;17.27;11.50;;;;;;;17.17;67.61;98663.31;4936232;29;20115;-75
2021/09/04 07:57:21;;;;;;;15.52;11.98;;;;;;;17.28;67.73;98662.94;4936391;29;20028;-74
2021/09/04 07:59:48;;;;;;;16.30;11.40;;;;;;;17.37;67.81;98661.72;4936340;29;20488;-73
2021/09/04 08:02:14;;;;;;;15.23;11.55;;;;;;;17.46;67.29;98669.97;4936521;29;20032;-74
2021/09/04 08:04:39;;;;;;;18.70;12.25;;;;;;;17.49;67.08;98666.53;4935170;29;20054;-75
2021/09/04 08:07:05;;;;;;;16.55;11.23;;;;;;;17.51;66.90;98663.44;4937237;29;20023;-75
2021/09/04 08:09:30;;;;;;;17.38;11.15;;;;;;;17.60;67.01;98669.69;4931683;29;20068;-75
2021/09/04 08:11:56;;;;;;;16.90;10.98;;;;;;;17.69;66.78;98675.19;4938355;29;20043;-74
2021/09/04 08:14:21;;;;;;;15.85;11.20;;;;;;;17.73;66.76;98670.56;4935785;29;20034;-74
2021/09/04 08:16:47;;;;;;;13.50;9.80;;;;;;;17.78;66.72;98670.38;4936268;29;20106;-75
2021/09/04 08:19:12;;;;;;;15.43;10.80;;;;;;;17.85;66.58;98667.88;4937221;29;20526;-75
2021/09/04 08:21:37;;;;;;;15.70;11.10;;;;;;;17.93;66.36;98671.69;4935566;29;20578;-75
2021/09/04 08:24:03;;;;;;;15.63;11.00;;;;;;;17.99;66.24;98670.38;4935527;29;20032;-73
2021/09/04 08:26:28;;;;;;;16.05;12.20;;;;;;;18.06;66.02;98671.78;4936771;29;20436;-73
2021/09/04 08:28:55;;;;;;;16.23;10.68;;;;;;;18.13;66.15;98672.06;4935768;29;20143;-73
2021/09/04 08:31:20;;;;;;;17.77;11.38;;;;;;;18.24;66.02;98667.72;4936685;28;20035;-73
2021/09/04 08:33:46;;;;;;;14.95;10.75;;;;;;;18.34;66.02;98676.75;4935123;29;20139;-70
2021/09/04 08:36:11;;;;;;;14.07;10.98;;;;;;;18.41;65.42;98666.72;4934695;29;20040;-73
2021/09/04 08:38:37;;;;;;;15.38;11.10;;;;;;;18.49;65.42;98678.06;4934079;29;20046;-72
2021/09/04 08:41:03;;;;;;;15.73;11.18;;;;;;;18.55;65.45;98680.28;4935317;29;20035;-74
2021/09/04 08:43:29;;;;;;;14.85;10.40;;;;;;;18.63;64.66;98678.53;4935198;29;20107;-72
2021/09/04 08:45:54;;;;;;;15.27;10.40;;;;;;;18.68;64.63;98683.06;4935660;29;20436;-73
2021/09/04 08:48:20;;;;;;;17.17;11.35;;;;;;;18.72;64.54;98684.00;4935601;29;20032;-73
2021/09/04 08:50:47;;;;;;;17.48;12.15;;;;;;;18.80;64.59;98683.06;4935572;29;20095;-73
2021/09/04 08:53:12;;;;;;;14.90;10.60;;;;;;;18.91;64.58;98675.09;4934909;29;20102;-73
2021/09/04 08:55:38;;;;;;;15.95;11.40;;;;;;;18.95;64.38;98678.78;4935689;29;20468;-73
2021/09/04 08:58:03;;;;;;;23.70;13.35;;;;;;;19.07;64.41;98678.03;4935392;29;20027;-73
2021/09/04 09:00:34;;;;;;;23.27;12.93;;;;;;;19.23;64.54;98683.69;4935677;28;20470;-74
2021/09/04 09:03:00;;;;;;;17.70;11.15;;;;;;;19.35;64.05;98680.09;4934654;29;20154;-73
2021/09/04 09:05:38;;;;;;;18.65;11.80;;;;;;;19.49;64.12;98682.50;4934867;29;20051;-74
2021/09/04 09:08:03;;;;;;;17.95;11.30;;;;;;;19.70;64.03;98687.09;4935594;29;20489;-74
2021/09/04 09:10:37;;;;;;;13.32;9.50;;;;;;;19.90;63.56;98683.34;4936064;29;20042;-74
2021/09/04 09:13:04;;;;;;;13.13;10.80;;;;;;;19.96;63.21;98675.56;4934926;29;20035;-74
2021/09/04 09:15:37;;;;;;;16.45;10.93;;;;;;;20.04;62.95;98671.00;4949507;28;20035;-73
2021/09/04 09:18:09;;;;;;;18.10;11.32;;;;;;;20.14;62.72;98672.44;4935509;29;20387;-74
2021/09/04 09:20:36;;;;;;;18.15;11.73;;;;;;;20.30;62.74;98678.88;4935075;29;20111;-74
2021/09/04 09:23:08;;;;;;;19.45;12.10;;;;;;;20.38;62.41;98677.09;4934698;29;20031;-76
2021/09/04 09:25:34;;;;;;;18.80;11.25;;;;;;;20.38;61.20;98677.09;4935665;29;20047;-74
2021/09/04 09:28:14;;;;;;;17.48;11.98;;;;;;;20.28;61.17;98675.66;4935679;29;20130;-73
2021/09/04 09:30:40;;;;;;;18.83;12.45;;;;;;;20.17;60.99;98680.94;4935686;29;20612;-73
2021/09/04 09:33:08;;;;;;;15.90;11.43;;;;;;;20.11;60.78;98687.09;4927401;29;20114;-72
2021/09/04 09:35:43;;;;;;;14.25;9.73;;;;;;;20.11;60.71;98681.50;4933838;29;20547;-74
2021/09/04 09:38:10;;;;;;;14.65;10.80;;;;;;;20.15;60.80;98686.03;4936864;29;20031;-72
2021/09/04 09:40:37;;;;;;;13.95;9.80;;;;;;;20.27;60.75;98676.81;4929818;29;20119;-74
2021/09/04 09:43:15;;;;;;;14.80;10.27;;;;;;;20.46;60.72;98678.09;4932669;28;20114;-78
2021/09/04 09:45:52;;;;;;;17.58;11.02;;;;;;;20.51;60.25;98684.22;4930858;29;20477;-77
2021/09/04 09:48:21;;;;;;;15.90;10.35;;;;;;;20.63;60.40;98674.16;4932776;29;20497;-76
2021/09/04 09:50:47;;;;;;;13.80;10.00;;;;;;;20.78;59.31;98676.16;4933716;29;20039;-78
2021/09/04 09:53:12;;;;;;;16.13;11.55;;;;;;;20.80;59.44;98678.59;4932431;29;20035;-74
2021/09/04 09:55:45;;;;;;;18.88;11.68;;;;;;;20.86;59.65;98679.13;4933304;29;20039;-74
2021/09/04 09:58:11;;;;;;;16.63;11.65;;;;;;;20.85;59.14;98674.72;4928086;29;20035;-75
2021/09/04 10:00:38;;;;;;;15.15;10.52;;;;;;;20.85;59.67;98678.31;4947737;29;20031;-80
2021/09/04 10:03:06;;;;;;;16.15;11.07;;;;;;;20.87;59.11;98678.75;4932293;29;20067;-76
2021/09/04 10:05:32;;;;;;;17.48;10.68;;;;;;;20.93;59.11;98679.31;4932956;29;20110;-74
2021/09/04 10:07:58;;;;;;;14.55;10.55;;;;;;;21.01;59.18;98674.72;4932812;29;20159;-76
2021/09/04 10:10:25;;;;;;;14.40;11.18;;;;;;;21.12;58.91;98676.59;4932790;29;20031;-76
2021/09/04 10:12:51;;;;;;;14.68;11.07;;;;;;;21.24;58.72;98667.28;4932307;29;20081;-75
2021/09/04 10:15:17;;;;;;;18.48;12.13;;;;;;;21.26;58.42;98667.75;4932547;29;20508;-76
2021/09/04 10:17:44;;;;;;;20.80;13.60;;;;;;;21.16;57.80;98671.13;4925971;29;20633;-76
2021/09/04 10:20:10;;;;;;;19.13;12.52;;;;;;;21.14;57.54;98673.44;4931677;29;20035;-76
2021/09/04 10:22:35;;;;;;;15.95;12.23;;;;;;;21.22;56.83;98664.06;4932391;29;20039;-75
2021/09/04 10:25:12;;;;;;;17.00;11.75;;;;;;;21.45;57.72;98659.78;4933054;29;20024;-73
2021/09/04 10:27:42;;;;;;;18.13;12.68;;;;;;;21.70;57.67;98658.38;4934192;29;20044;-72
2021/09/04 10:30:23;;;;;;;15.02;11.38;;;;;;;21.82;56.91;98657.44;4933034;29;20043;-73
2021/09/04 10:33:18;;;;;;;16.33;11.02;;;;;;;21.95;56.75;98657.28;4931980;29;20074;-77
2021/09/04 10:35:57;;;;;;;14.02;10.27;;;;;;;22.10;56.19;98659.16;4932664;29;20032;-76
2021/09/04 10:38:23;;;;;;;18.05;11.98;;;;;;;22.06;54.64;98661.09;4931859;29;20047;-74
2021/09/04 10:40:51;;;;;;;14.40;11.65;;;;;;;21.99;54.72;98660.97;4932589;29;20023;-76
2021/09/04 10:43:18;;;;;;;15.70;11.07;;;;;;;21.88;54.26;98663.50;4933192;29;20047;-77
2021/09/04 10:45:46;;;;;;;15.40;11.35;;;;;;;21.99;54.41;98655.38;4948102;29;20484;-77
2021/09/04 10:48:16;;;;;;;16.38;10.88;;;;;;;22.15;54.47;98658.09;4933239;29;20031;-76
2021/09/04 10:50:42;;;;;;;21.95;13.43;;;;;;;22.29;54.67;98658.34;4933026;28;20055;-77
2021/09/04 10:53:08;;;;;;;20.02;14.55;;;;;;;22.37;53.71;98658.47;4933630;29;20041;-78
2021/09/04 10:55:33;;;;;;;19.73;13.32;;;;;;;22.46;54.10;98667.47;4933548;29;20024;-76
2021/09/04 10:58:07;;;;;;;19.33;12.73;;;;;;;22.66;54.30;98661.81;4933871;29;20547;-78
2021/09/04 11:00:41;;;;;;;20.85;12.95;;;;;;;22.80;54.12;98661.25;4925570;29;20499;-73
2021/09/04 11:03:09;;;;;;;22.13;13.20;;;;;;;22.72;52.08;98663.09;4934383;29;20559;-73
2021/09/04 11:05:42;;;;;;;14.95;11.63;;;;;;;22.52;50.90;98665.97;4935043;29;20031;-72
2021/09/04 11:08:07;;;;;;;17.80;12.85;;;;;;;22.30;51.73;98662.75;4932181;29;20508;-73
2021/09/04 11:10:35;;;;;;;19.63;12.45;;;;;;;22.11;51.17;98663.59;4946812;29;20119;-73
2021/09/04 11:13:04;;;;;;;18.20;13.13;;;;;;;21.93;51.86;98657.63;4930490;29;20038;-73